»·PEaware :: XSR250 KBTY-KSAN

XSR250 :: KBTY-KSAN

FLIGHT INFORMATION

Flight Status: Arrived
Operator: Unknown
More flights by this operator :: More flights under this callsign
Pilot: Andrew J. (13363)
Aircraft: SOCATA TBM-900
(TBM9)
More flights by this aircraft type
Origin: KBTY Beatty
United States
Destination: KSAN San Diego Intl-Lindbergh
United States
More flights between these airports :: More routes between these airports
Route: +BTY V135 CLARR TNP BARET5
File this flight plan on PilotEdge
Remarks:
Altitude:
(Current/Filed)
30,000ft
Speed:
(Current/Filed)
315kts
Departed: 06-Feb-18 08:09 PM
Arrived: 06-Feb-18 09:43 PM
Distance/Time
Traveled:
248nm/1:34
Distance/Time
To Go:
Arrived

Flight Plot

Page will automatically refresh every two minutes.

Flight plan parsing failed; only flown route is shown


Map Options




Map Legend


Flown Route
Filed Route
Departure Airport
Arrival Airport
Navaid (VOR, NDB)
Fix

Horizontal Profiles

Position Reports

Time Latitude Longitude Heading Altitude Ground
Speed
06-Feb-18 20:05 36.867620 -116.784258 359 3162ft 0kts
06-Feb-18 20:07 36.867620 -116.784258 359 3162ft 0kts
06-Feb-18 20:07 36.867620 -116.784258 359 3162ft 0kts
06-Feb-18 20:08 36.867620 -116.784258 359 3162ft 0kts
06-Feb-18 20:09 36.867620 -116.784258 359 3162ft 0kts
06-Feb-18 20:10 36.867620 -116.784258 359 3162ft 0kts
06-Feb-18 20:11 36.867620 -116.784258 359 3162ft 0kts
06-Feb-18 20:12 36.867620 -116.784258 359 3162ft 0kts
06-Feb-18 20:13 36.868047 -116.784220 6 3165ft 5kts
06-Feb-18 20:14 36.868624 -116.785008 268 3170ft 3kts
06-Feb-18 20:15 36.864746 -116.786364 179 3142ft 88kts
06-Feb-18 20:16 36.826226 -116.791008 184 3747ft 171kts
06-Feb-18 20:17 36.780444 -116.799779 186 3170ft 162kts
06-Feb-18 20:18 36.740102 -116.801618 152 5581ft 143kts
06-Feb-18 20:19 36.702166 -116.760336 135 6200ft 222kts
06-Feb-18 20:20 36.659790 -116.712982 133 8427ft 181kts
06-Feb-18 20:21 36.626260 -116.675453 131 10623ft 162kts
06-Feb-18 20:22 36.600077 -116.646014 130 12056ft 172kts
06-Feb-18 20:23 36.585864 -116.630049 130 12926ft 170kts
06-Feb-18 20:24 36.550656 -116.590305 129 14253ft 175kts
06-Feb-18 20:25 36.514164 -116.549213 130 15272ft 182kts
06-Feb-18 20:26 36.476317 -116.506860 130 16525ft 189kts
06-Feb-18 20:27 36.437293 -116.463379 130 18230ft 194kts
06-Feb-18 20:28 36.396837 -116.418316 130 20044ft 200kts
06-Feb-18 20:29 36.355313 -116.372094 131 21668ft 208kts
06-Feb-18 20:30 36.313414 -116.325499 132 23119ft 215kts
06-Feb-18 20:31 36.269217 -116.276419 132 24493ft 222kts
06-Feb-18 20:32 36.223034 -116.225201 132 25780ft 228kts
06-Feb-18 20:33 36.175502 -116.172562 132 26974ft 234kts
06-Feb-18 20:34 36.126744 -116.118639 133 28099ft 242kts
06-Feb-18 20:35 36.076248 -116.062874 133 29631ft 248kts
06-Feb-18 20:36 36.021355 -116.003507 139 30053ft 296kts
06-Feb-18 20:37 35.952211 -115.938407 139 30035ft 329kts
06-Feb-18 20:38 35.898916 -115.894396 152 30026ft 350kts
06-Feb-18 20:39 35.815395 -115.882141 176 30018ft 364kts
06-Feb-18 20:40 35.716906 -115.878145 175 30016ft 367kts
06-Feb-18 20:41 35.617310 -115.873198 175 30017ft 369kts
06-Feb-18 20:42 35.518206 -115.867624 174 30018ft 371kts
06-Feb-18 20:43 35.418010 -115.861512 174 30019ft 372kts
06-Feb-18 20:44 35.338863 -115.856420 174 30020ft 373kts
06-Feb-18 20:45 35.238538 -115.849754 174 30021ft 374kts
06-Feb-18 20:46 35.138434 -115.842920 174 30022ft 375kts
06-Feb-18 20:47 35.037947 -115.835925 174 30024ft 375kts
06-Feb-18 20:48 34.937152 -115.828824 174 30025ft 375kts
06-Feb-18 20:49 34.853688 -115.822912 174 30010ft 375kts
06-Feb-18 20:50 34.769422 -115.816901 174 30013ft 374kts
06-Feb-18 20:51 34.694655 -115.811554 174 30015ft 373kts
06-Feb-18 20:52 34.594609 -115.804388 174 30016ft 373kts
06-Feb-18 20:53 34.493527 -115.797144 174 30017ft 374kts
06-Feb-18 20:54 34.392828 -115.789917 174 30019ft 374kts
06-Feb-18 20:55 34.292719 -115.782733 174 30020ft 374kts
06-Feb-18 20:56 34.192653 -115.775553 174 30021ft 375kts
06-Feb-18 20:57 34.094766 -115.797409 210 30027ft 373kts
06-Feb-18 20:58 34.004850 -115.855085 211 30025ft 373kts
06-Feb-18 20:59 33.915834 -115.913220 211 30026ft 373kts
06-Feb-18 21:00 33.832468 -115.968305 212 30012ft 372kts
06-Feb-18 21:01 33.744792 -116.026689 212 30014ft 371kts
06-Feb-18 21:02 33.655954 -116.086152 212 30015ft 371kts
06-Feb-18 21:03 33.565887 -116.141227 195 30017ft 375kts
06-Feb-18 21:04 33.467603 -116.124465 142 30010ft 357kts
06-Feb-18 21:05 33.387086 -116.059057 141 27639ft 356kts
06-Feb-18 21:06 33.306872 -115.997765 142 25648ft 341kts
06-Feb-18 21:07 33.217761 -115.996466 211 23989ft 333kts
06-Feb-18 21:08 33.169445 -116.028415 211 23544ft 315kts
06-Feb-18 21:09 33.091319 -116.080596 211 22012ft 330kts
06-Feb-18 21:10 33.010985 -116.134898 211 20470ft 333kts
06-Feb-18 21:11 32.933694 -116.187520 211 18887ft 308kts
06-Feb-18 21:12 32.867181 -116.233036 211 17408ft 295kts
06-Feb-18 21:13 32.810252 -116.294572 251 15785ft 277kts
06-Feb-18 21:14 32.780404 -116.377719 251 14196ft 273kts
06-Feb-18 21:15 32.751474 -116.460246 251 12638ft 268kts
06-Feb-18 21:16 32.723695 -116.540969 251 11146ft 264kts
06-Feb-18 21:17 32.697163 -116.618192 251 9599ft 265kts
06-Feb-18 21:18 32.674222 -116.685143 251 8128ft 267kts
06-Feb-18 21:19 32.646846 -116.765072 251 6353ft 264kts
06-Feb-18 21:20 32.625732 -116.843441 297 5117ft 218kts
06-Feb-18 21:22 32.661833 -116.904833 289 5023ft 255kts
06-Feb-18 21:23 32.678801 -116.972829 293 5018ft 184kts
06-Feb-18 21:24 32.693020 -117.029246 293 4877ft 186kts
06-Feb-18 21:25 32.707285 -117.085903 293 3696ft 180kts
06-Feb-18 21:26 32.721283 -117.141457 282 1640ft 183kts
06-Feb-18 21:27 32.733425 -117.189788 286 23ft 118kts
06-Feb-18 21:28 32.743337 -117.232884 286 2058ft 144kts
06-Feb-18 21:29 32.752203 -117.293604 286 2770ft 215kts
06-Feb-18 21:30 32.769885 -117.348869 354 4979ft 158kts
06-Feb-18 21:31 32.804264 -117.310684 37 5102ft 191kts
06-Feb-18 21:32 32.847347 -117.270725 36 5102ft 201kts
06-Feb-18 21:33 32.888492 -117.232622 36 5065ft 169kts
06-Feb-18 21:34 32.910624 -117.199946 76 5063ft 114kts
06-Feb-18 21:35 32.916470 -117.167411 66 5187ft 129kts
06-Feb-18 21:36 32.912507 -117.117490 121 5124ft 196kts
06-Feb-18 21:37 32.879970 -117.067268 121 5100ft 205kts
06-Feb-18 21:38 32.842827 -117.016200 150 5085ft 217kts
06-Feb-18 21:39 32.802316 -116.998363 156 5098ft 218kts
06-Feb-18 21:40 32.745414 -116.974654 156 5099ft 219kts
06-Feb-18 21:41 32.721867 -116.922341 91 5097ft 192kts
06-Feb-18 21:42 32.690567 -116.882428 190 4667ft 228kts
06-Feb-18 21:43 32.660361 -116.927671 291 4071ft 204kts
06-Feb-18 21:44 32.676493 -116.986542 294 3936ft 182kts
06-Feb-18 21:45 32.691262 -117.039895 295 3227ft 168kts
06-Feb-18 21:46 32.708322 -117.085824 297 2411ft 141kts
06-Feb-18 21:47 32.718510 -117.128486 293 1231ft 141kts
06-Feb-18 21:48 32.728644 -117.169393 296 276ft 118kts
06-Feb-18 21:49 32.735901 -117.199087 305 16ft 50kts
06-Feb-18 21:50 32.735164 -117.200523 106 15ft 6kts
06-Feb-18 21:51 32.734198 -117.196543 106 15ft 18kts
06-Feb-18 21:52 32.733801 -117.191347 28 16ft 10kts
06-Feb-18 21:53 32.735060 -117.187949 101 17ft 0kts
06-Feb-18 21:54 32.735058 -117.187939 100 17ft 0kts
06-Feb-18 21:55 32.735058 -117.187939 99 17ft 0kts
06-Feb-18 21:56 32.735058 -117.187939 99 17ft 0kts
06-Feb-18 21:57 32.735058 -117.187939 99 17ft 0kts
06-Feb-18 21:58 32.735058 -117.187939 99 17ft 0kts
06-Feb-18 21:59 32.735058 -117.187939 99 17ft 0kts
06-Feb-18 22:00 32.735058 -117.187939 99 17ft 0kts
06-Feb-18 22:01 32.735058 -117.187939 99 17ft 0kts
06-Feb-18 22:02 32.735058 -117.187939 99 17ft 0kts

Navigation Log

Ident Type
Flight plan parsing failed, navigation log unavailable